Terminal Aerodrome Forecast
Issued by NWS

Home | Current Version | Previous Version | Text Only | Print | Product List | Glossary On
Versions: 1 2 3 4 5 6 7 8 9 10 11 12 13 14
000
FTUS45 KTFX 211100
TAFHVR
TAF
KHVR 211129Z 2112/2212 VRB06KT P6SM BKN120
      TEMPO 2112/2116 6SM -FZRA BKN025
     FM211600 20010KT P6SM VCSH OVC050
      TEMPO 2116/2118 6SM -SHRA BKN025
     FM211800 26018G30KT P6SM -RA OVC035
     FM220100 28014KT 5SM -SN OVC025
     FM220600 26015KT P6SM OVC035=

USA.gov is the U.S. government's official web portal to all federal, state and local government web resources and services.